Yarmouth Port, MA (02675)

1:17 PM EDT on October 23, 2014 (GMT -0400)
WA1FSC - Yarmouth Port | Change Station
CLOSE
Current Station
Personal Weather Station
Location: Yarmouth, MA
Elevation: 33 ft
Nearby Weather Stations

Elev 33 ft 41.71 °N, 70.23 °W | Updated 6 minutes ago

Overcast
Overcast
63.5 °F
Feels Like 63.5 °F
N
1.7
Wind Variable Wind from NW

Today
High -- | Low -- °F
--% Chance of Precip.
Yesterday
High -- | Low -- °F
Precip. -- in
7:02 AM 5:47 PM
Waning Crescent, 0% visible
Pressure 29.51 in
Visibility 10.0 miles
Clouds Few 5000 ft
Mostly Cloudy 10000 ft
Dew Point 60 °F
Humidity 90%
Rainfall 0.62 in
Snow Depth Not available.
UV 2 out of 12
Pollen .30 out of 12
Air Quality Not available.
Flu Activity No Activity
METAR KHYA 231656Z 02011KT 10SM FEW050 BKN100 18/14 A2950 RMK AO2 SLP992 T01780144

More Conditions Fewer Conditions

Pressure 29.51 in
Visibility 10.0 miles
Clouds Few 5000 ft
Mostly Cloudy 10000 ft
Dew Point 60 °F
Humidity 90%
Rainfall 0.62 in
Snow Depth Not available.
UV 2 out of 12
Pollen .30 out of 12
Air Quality Not available.
Flu Activity No Activity
METAR KHYA 231656Z 02011KT 10SM FEW050 BKN100 18/14 A2950 RMK AO2 SLP992 T01780144

More Conditions Fewer Conditions

10-Day Weather Forecast

Almanac

Astronomy

Oct. 23, 2014 Rise Set
Actual Time 7:02 AM EDT 5:47 PM EDT
Civil Twilight 6:33 AM EDT 6:15 PM EDT
Nautical Twilight 6:01 AM EDT 6:48 PM EDT
Astronomical Twilight 5:29 AM EDT 7:20 PM EDT
Moon 6:38 AM EDT 5:47 PM EDT
Length of Visible Light 11h 42m
Length of Day
10h 45m
Tomorrow will be 2m 37s shorter.
Waning Crescent, 0% of the Moon is Illuminated
Today
Waning Crescent
Oct 23
New
Oct 30
First Quarter
Nov 6
Full
Nov 14
Last Quarter

Today's Extremes

State Highs State Lows

Community

WunderPhotos

Upload Photos

1,764,316 photos uploaded!

WunderBlogs® & News

Nearby

Air Quality

  Air Quality AQ Index Pollutant
Yesterday Good
OZONE
Thursday Good
PM2.5

Snow Depth

Station Depth Elevation
No new snow has been reported.

Earthquake Activity

City Distance Mag. Time & Date
No recent earthquake activity has been reported nearby.
Minimum magnitude displayed is 2.5.

Coastal Water Temperatures

Place Temperature
Woods Hole, MA 61.0 °F
Nantucket Island, MA 59.0 °F
Boston, MA 55.9 °F
Fall River, MA 62.1 °F

Nearby Weather Stations